Hugo, MN (55038)

11:11 PM CDT on March 28, 2015 (GMT -0500)
Oneka Lake | | Change Station
CLOSE
Current Station
Personal Weather Station
Location: Hugo, MN
Elevation: 922 ft
Nearby Weather Stations

Elev 922 ft 45.17 °N, 92.98 °W | Updated 10 seconds ago

Partly Cloudy
Partly Cloudy
36.5 °F
Feels Like 31 °F
N
7.0
Wind Variable Wind from SSW
Gusts 16.0 mph

Today
High -- | Low -- °F
--% Chance of Precip.
Yesterday
High -- | Low -- °F
Precip. -- in
7:00 AM 7:34 PM
Waxing Gibbous, 68% visible
Pressure 29.94 in
Visibility 10.0 miles
Clouds Clear
Windchill 31 °F
Dew Point 23 °F
Humidity 57%
Rainfall in
Snow Depth Not available.
UV 0 out of 12
Pollen 1.80 out of 12
Air Quality Not available.
Flu Activity Not available.
METAR KANE 290354Z AUTO 16015G23KT 10SM CLR 04/M05 A2994 RMK AO2

More Conditions Fewer Conditions

Pressure 29.94 in
Visibility 10.0 miles
Clouds Clear
Windchill 31 °F
Dew Point 23 °F
Humidity 57%
Rainfall in
Snow Depth Not available.
UV 0 out of 12
Pollen 1.80 out of 12
Air Quality Not available.
Flu Activity Not available.
METAR KANE 290354Z AUTO 16015G23KT 10SM CLR 04/M05 A2994 RMK AO2

More Conditions Fewer Conditions

10-Day Weather Forecast

Almanac

Astronomy

Mar. 28, 2015 Rise Set
Actual Time
Civil Twilight
Nautical Twilight
Astronomical Twilight
Moon
Length of Visible Light
Length of Day
Tomorrow will be .
, % of the Moon is Illuminated

Today's Extremes

State Highs State Lows

Community

WunderPhotos

Upload Photos

1,809,182 photos uploaded!

WunderBlogs® & News

Nearby

Air Quality

  Air Quality AQ Index Pollutant
Not available.

Snow Depth

Station Depth Elevation

Earthquake Activity

City Distance Mag. Time & Date
Minimum magnitude displayed is 2.5.

Coastal Water Temperatures

Place Temperature

Stations

Nearby Weather Stations

Station Location Temp. Windchill Dew Point Humidity Wind Precip. Elev Updated Type